sensor_id;sensor_type;location;lat;lon;timestamp;temperature;humidity
19214;DHT22;9741;51.020;5.304;2023-03-22T00:01:24;12.40;61.20
19214;DHT22;9741;51.020;5.304;2023-03-22T00:03:55;12.30;61.20
19214;DHT22;9741;51.020;5.304;2023-03-22T00:06:23;12.20;61.30
19214;DHT22;9741;51.020;5.304;2023-03-22T00:08:52;12.10;61.40
19214;DHT22;9741;51.020;5.304;2023-03-22T00:11:21;12.10;61.50
19214;DHT22;9741;51.020;5.304;2023-03-22T00:13:48;12.10;61.60
19214;DHT22;9741;51.020;5.304;2023-03-22T00:16:20;12.20;61.80
19214;DHT22;9741;51.020;5.304;2023-03-22T00:18:48;12.10;61.70
19214;DHT22;9741;51.020;5.304;2023-03-22T00:21:16;12.10;61.80
19214;DHT22;9741;51.020;5.304;2023-03-22T00:23:44;12.20;62.00
19214;DHT22;9741;51.020;5.304;2023-03-22T00:26:12;12.20;61.90
19214;DHT22;9741;51.020;5.304;2023-03-22T00:28:40;12.20;62.00
19214;DHT22;9741;51.020;5.304;2023-03-22T00:31:10;12.20;62.00
19214;DHT22;9741;51.020;5.304;2023-03-22T00:33:37;12.20;62.00
19214;DHT22;9741;51.020;5.304;2023-03-22T00:36:06;12.10;62.00
19214;DHT22;9741;51.020;5.304;2023-03-22T00:38:35;12.10;62.10
19214;DHT22;9741;51.020;5.304;2023-03-22T00:41:06;12.00;62.10
19214;DHT22;9741;51.020;5.304;2023-03-22T00:43:34;12.00;62.20
19214;DHT22;9741;51.020;5.304;2023-03-22T00:46:04;11.90;62.00
19214;DHT22;9741;51.020;5.304;2023-03-22T00:48:32;11.90;62.20
19214;DHT22;9741;51.020;5.304;2023-03-22T00:51:00;11.80;62.20
19214;DHT22;9741;51.020;5.304;2023-03-22T00:53:27;11.80;62.20
19214;DHT22;9741;51.020;5.304;2023-03-22T00:55:56;11.80;62.30
19214;DHT22;9741;51.020;5.304;2023-03-22T00:58:24;11.70;62.30
19214;DHT22;9741;51.020;5.304;2023-03-22T01:00:52;11.60;62.30
19214;DHT22;9741;51.020;5.304;2023-03-22T01:03:20;11.60;62.40
19214;DHT22;9741;51.020;5.304;2023-03-22T01:05:48;11.60;62.50
19214;DHT22;9741;51.020;5.304;2023-03-22T01:08:20;11.50;62.50
19214;DHT22;9741;51.020;5.304;2023-03-22T01:10:48;11.50;62.50
19214;DHT22;9741;51.020;5.304;2023-03-22T01:13:19;11.50;62.60
19214;DHT22;9741;51.020;5.304;2023-03-22T01:15:49;11.40;62.60
19214;DHT22;9741;51.020;5.304;2023-03-22T01:18:17;11.40;62.60
19214;DHT22;9741;51.020;5.304;2023-03-22T01:20:45;11.40;62.70
19214;DHT22;9741;51.020;5.304;2023-03-22T01:23:12;11.30;62.70
19214;DHT22;9741;51.020;5.304;2023-03-22T01:25:39;11.30;62.70
19214;DHT22;9741;51.020;5.304;2023-03-22T01:28:06;11.30;62.80
19214;DHT22;9741;51.020;5.304;2023-03-22T01:30:37;11.30;62.90
19214;DHT22;9741;51.020;5.304;2023-03-22T01:33:05;11.20;62.80
19214;DHT22;9741;51.020;5.304;2023-03-22T01:35:33;11.20;62.90
19214;DHT22;9741;51.020;5.304;2023-03-22T01:38:01;11.20;62.90
19214;DHT22;9741;51.020;5.304;2023-03-22T01:40:31;11.10;62.90
19214;DHT22;9741;51.020;5.304;2023-03-22T01:43:00;11.10;62.90
19214;DHT22;9741;51.020;5.304;2023-03-22T01:45:38;11.10;63.00
19214;DHT22;9741;51.020;5.304;2023-03-22T01:48:19;11.00;63.00
19214;DHT22;9741;51.020;5.304;2023-03-22T01:50:57;11.00;63.10
19214;DHT22;9741;51.020;5.304;2023-03-22T01:53:46;11.00;63.10
19214;DHT22;9741;51.020;5.304;2023-03-22T01:56:16;11.00;63.20
19214;DHT22;9741;51.020;5.304;2023-03-22T01:58:53;11.00;63.30
19214;DHT22;9741;51.020;5.304;2023-03-22T02:01:22;11.00;63.30
19214;DHT22;9741;51.020;5.304;2023-03-22T02:03:54;10.90;63.30
19214;DHT22;9741;51.020;5.304;2023-03-22T02:06:23;11.00;63.40
19214;DHT22;9741;51.020;5.304;2023-03-22T02:08:52;11.00;63.50
19214;DHT22;9741;51.020;5.304;2023-03-22T02:11:28;11.00;63.50
19214;DHT22;9741;51.020;5.304;2023-03-22T02:17:31;11.00;63.50
19214;DHT22;9741;51.020;5.304;2023-03-22T02:26:57;11.00;63.60
19214;DHT22;9741;51.020;5.304;2023-03-22T02:29:37;10.90;63.60
19214;DHT22;9741;51.020;5.304;2023-03-22T02:35:39;10.90;63.60
19214;DHT22;9741;51.020;5.304;2023-03-22T02:38:47;10.90;63.60
19214;DHT22;9741;51.020;5.304;2023-03-22T02:41:23;10.90;63.70
19214;DHT22;9741;51.020;5.304;2023-03-22T02:44:00;10.90;63.70
19214;DHT22;9741;51.020;5.304;2023-03-22T02:46:36;10.90;63.70
19214;DHT22;9741;51.020;5.304;2023-03-22T02:49:16;10.90;63.80
19214;DHT22;9741;51.020;5.304;2023-03-22T02:51:49;10.90;63.80
19214;DHT22;9741;51.020;5.304;2023-03-22T02:54:24;10.80;63.70
19214;DHT22;9741;51.020;5.304;2023-03-22T02:57:01;10.80;63.80
19214;DHT22;9741;51.020;5.304;2023-03-22T02:59:33;10.80;63.90
19214;DHT22;9741;51.020;5.304;2023-03-22T03:02:08;10.80;63.80
19214;DHT22;9741;51.020;5.304;2023-03-22T03:04:40;10.80;63.90
19214;DHT22;9741;51.020;5.304;2023-03-22T03:07:10;10.80;63.90
19214;DHT22;9741;51.020;5.304;2023-03-22T03:09:41;10.80;64.00
19214;DHT22;9741;51.020;5.304;2023-03-22T03:12:13;10.80;64.00
19214;DHT22;9741;51.020;5.304;2023-03-22T03:14:44;10.70;64.00
19214;DHT22;9741;51.020;5.304;2023-03-22T03:17:23;10.80;64.10
19214;DHT22;9741;51.020;5.304;2023-03-22T03:20:03;10.70;64.00
19214;DHT22;9741;51.020;5.304;2023-03-22T03:22:50;10.70;64.00
19214;DHT22;9741;51.020;5.304;2023-03-22T03:36:17;10.70;64.20
19214;DHT22;9741;51.020;5.304;2023-03-22T03:39:22;10.60;64.10
19214;DHT22;9741;51.020;5.304;2023-03-22T03:42:23;10.70;64.20
19214;DHT22;9741;51.020;5.304;2023-03-22T03:45:44;10.70;64.80
19214;DHT22;9741;51.020;5.304;2023-03-22T03:48:44;10.70;64.40
19214;DHT22;9741;51.020;5.304;2023-03-22T03:55:15;10.70;64.20
19214;DHT22;9741;51.020;5.304;2023-03-22T03:57:42;10.70;64.20
19214;DHT22;9741;51.020;5.304;2023-03-22T04:00:10;10.70;64.30
19214;DHT22;9741;51.020;5.304;2023-03-22T04:02:40;10.70;64.30
19214;DHT22;9741;51.020;5.304;2023-03-22T04:05:08;10.70;64.30
19214;DHT22;9741;51.020;5.304;2023-03-22T04:07:36;10.80;64.30
19214;DHT22;9741;51.020;5.304;2023-03-22T04:10:04;10.70;64.20
19214;DHT22;9741;51.020;5.304;2023-03-22T04:12:36;10.70;64.70
19214;DHT22;9741;51.020;5.304;2023-03-22T04:15:05;10.80;64.30
19214;DHT22;9741;51.020;5.304;2023-03-22T04:17:33;10.70;64.20
19214;DHT22;9741;51.020;5.304;2023-03-22T04:20:03;10.80;64.30
19214;DHT22;9741;51.020;5.304;2023-03-22T04:22:30;10.80;64.30
19214;DHT22;9741;51.020;5.304;2023-03-22T04:24:59;10.80;64.20
19214;DHT22;9741;51.020;5.304;2023-03-22T04:27:26;10.80;64.20
19214;DHT22;9741;51.020;5.304;2023-03-22T04:29:56;10.80;64.10
19214;DHT22;9741;51.020;5.304;2023-03-22T04:32:32;10.80;64.10
19214;DHT22;9741;51.020;5.304;2023-03-22T04:35:00;10.80;64.10
19214;DHT22;9741;51.020;5.304;2023-03-22T04:37:30;10.80;64.10
19214;DHT22;9741;51.020;5.304;2023-03-22T04:39:58;10.70;63.90
19214;DHT22;9741;51.020;5.304;2023-03-22T04:42:31;10.70;63.90
19214;DHT22;9741;51.020;5.304;2023-03-22T04:45:07;10.70;64.00
19214;DHT22;9741;51.020;5.304;2023-03-22T04:47:34;10.70;64.00
19214;DHT22;9741;51.020;5.304;2023-03-22T04:50:06;10.70;64.00
19214;DHT22;9741;51.020;5.304;2023-03-22T04:52:33;10.60;64.00
19214;DHT22;9741;51.020;5.304;2023-03-22T04:55:00;10.60;64.00
19214;DHT22;9741;51.020;5.304;2023-03-22T04:57:28;10.60;64.10
19214;DHT22;9741;51.020;5.304;2023-03-22T04:59:55;10.70;64.10
19214;DHT22;9741;51.020;5.304;2023-03-22T05:02:26;10.70;64.20
19214;DHT22;9741;51.020;5.304;2023-03-22T05:04:53;10.70;64.20
19214;DHT22;9741;51.020;5.304;2023-03-22T05:07:20;10.70;64.20
19214;DHT22;9741;51.020;5.304;2023-03-22T05:09:47;10.80;64.30
19214;DHT22;9741;51.020;5.304;2023-03-22T05:12:15;10.80;64.20
19214;DHT22;9741;51.020;5.304;2023-03-22T05:14:42;10.90;64.30
19214;DHT22;9741;51.020;5.304;2023-03-22T05:17:10;10.90;64.20
19214;DHT22;9741;51.020;5.304;2023-03-22T05:19:41;10.90;64.10
19214;DHT22;9741;51.020;5.304;2023-03-22T05:22:08;11.00;64.20
19214;DHT22;9741;51.020;5.304;2023-03-22T05:24:38;11.00;64.20
19214;DHT22;9741;51.020;5.304;2023-03-22T05:27:08;11.10;64.20
19214;DHT22;9741;51.020;5.304;2023-03-22T05:29:36;11.10;64.10
19214;DHT22;9741;51.020;5.304;2023-03-22T05:32:09;11.10;64.00
19214;DHT22;9741;51.020;5.304;2023-03-22T05:34:37;11.10;64.00
19214;DHT22;9741;51.020;5.304;2023-03-22T05:37:08;11.20;64.00
19214;DHT22;9741;51.020;5.304;2023-03-22T05:39:38;11.20;64.00
19214;DHT22;9741;51.020;5.304;2023-03-22T05:42:05;11.20;63.90
19214;DHT22;9741;51.020;5.304;2023-03-22T05:44:32;11.20;63.90
19214;DHT22;9741;51.020;5.304;2023-03-22T05:47:00;11.20;64.40
19214;DHT22;9741;51.020;5.304;2023-03-22T05:49:32;11.20;63.90
19214;DHT22;9741;51.020;5.304;2023-03-22T05:52:03;11.20;63.80
19214;DHT22;9741;51.020;5.304;2023-03-22T05:54:36;11.20;63.80
19214;DHT22;9741;51.020;5.304;2023-03-22T05:57:03;11.10;63.70
19214;DHT22;9741;51.020;5.304;2023-03-22T05:59:31;11.20;63.90
19214;DHT22;9741;51.020;5.304;2023-03-22T06:01:59;11.20;63.90
19214;DHT22;9741;51.020;5.304;2023-03-22T06:04:26;11.30;64.00
19214;DHT22;9741;51.020;5.304;2023-03-22T06:06:55;11.40;63.90
19214;DHT22;9741;51.020;5.304;2023-03-22T06:09:22;11.40;63.80
19214;DHT22;9741;51.020;5.304;2023-03-22T06:11:54;11.50;63.80
19214;DHT22;9741;51.020;5.304;2023-03-22T06:14:21;11.60;63.80
19214;DHT22;9741;51.020;5.304;2023-03-22T06:16:51;11.60;63.70
19214;DHT22;9741;51.020;5.304;2023-03-22T06:19:19;11.60;63.60
19214;DHT22;9741;51.020;5.304;2023-03-22T06:21:46;11.60;63.50
19214;DHT22;9741;51.020;5.304;2023-03-22T06:24:14;11.70;63.50
19214;DHT22;9741;51.020;5.304;2023-03-22T06:26:41;11.70;63.50
19214;DHT22;9741;51.020;5.304;2023-03-22T06:29:10;11.70;63.40
19214;DHT22;9741;51.020;5.304;2023-03-22T06:31:37;11.80;63.40
19214;DHT22;9741;51.020;5.304;2023-03-22T06:34:05;11.80;63.40
19214;DHT22;9741;51.020;5.304;2023-03-22T06:36:32;11.80;63.30
19214;DHT22;9741;51.020;5.304;2023-03-22T06:39:00;11.90;63.30
19214;DHT22;9741;51.020;5.304;2023-03-22T06:41:30;11.90;63.20
19214;DHT22;9741;51.020;5.304;2023-03-22T06:43:57;12.00;63.20
19214;DHT22;9741;51.020;5.304;2023-03-22T06:46:31;12.10;63.20
19214;DHT22;9741;51.020;5.304;2023-03-22T06:48:59;12.10;63.10
19214;DHT22;9741;51.020;5.304;2023-03-22T06:51:27;12.20;63.10
19214;DHT22;9741;51.020;5.304;2023-03-22T06:53:55;12.30;63.00
19214;DHT22;9741;51.020;5.304;2023-03-22T06:56:23;12.30;62.90
19214;DHT22;9741;51.020;5.304;2023-03-22T06:58:51;12.40;62.90
19214;DHT22;9741;51.020;5.304;2023-03-22T07:01:20;12.40;62.70
19214;DHT22;9741;51.020;5.304;2023-03-22T07:03:48;12.40;62.60
19214;DHT22;9741;51.020;5.304;2023-03-22T07:06:18;12.50;62.50
19214;DHT22;9741;51.020;5.304;2023-03-22T07:08:46;12.50;62.50
19214;DHT22;9741;51.020;5.304;2023-03-22T07:11:16;12.60;62.50
19214;DHT22;9741;51.020;5.304;2023-03-22T07:13:45;12.70;62.40
19214;DHT22;9741;51.020;5.304;2023-03-22T07:16:12;12.70;62.30
19214;DHT22;9741;51.020;5.304;2023-03-22T07:18:40;12.80;62.20
19214;DHT22;9741;51.020;5.304;2023-03-22T07:21:08;12.80;62.10
19214;DHT22;9741;51.020;5.304;2023-03-22T07:23:36;12.90;62.10
19214;DHT22;9741;51.020;5.304;2023-03-22T07:26:03;12.90;61.90
19214;DHT22;9741;51.020;5.304;2023-03-22T07:28:31;12.90;61.80
19214;DHT22;9741;51.020;5.304;2023-03-22T07:30:59;13.00;61.70
19214;DHT22;9741;51.020;5.304;2023-03-22T07:33:26;13.10;61.60
19214;DHT22;9741;51.020;5.304;2023-03-22T07:35:56;13.20;61.60
19214;DHT22;9741;51.020;5.304;2023-03-22T07:38:27;13.30;61.40
19214;DHT22;9741;51.020;5.304;2023-03-22T07:40:56;13.50;61.20
19214;DHT22;9741;51.020;5.304;2023-03-22T07:43:23;13.70;60.90
19214;DHT22;9741;51.020;5.304;2023-03-22T07:45:53;13.80;60.50
19214;DHT22;9741;51.020;5.304;2023-03-22T07:48:22;13.80;60.20
19214;DHT22;9741;51.020;5.304;2023-03-22T07:50:54;13.80;59.90
19214;DHT22;9741;51.020;5.304;2023-03-22T07:53:21;13.80;59.70
19214;DHT22;9741;51.020;5.304;2023-03-22T07:55:53;13.90;59.60
19214;DHT22;9741;51.020;5.304;2023-03-22T07:58:20;13.80;59.10
19214;DHT22;9741;51.020;5.304;2023-03-22T08:00:47;13.80;59.00
19214;DHT22;9741;51.020;5.304;2023-03-22T08:03:15;13.80;58.90
19214;DHT22;9741;51.020;5.304;2023-03-22T08:05:47;13.80;58.70
19214;DHT22;9741;51.020;5.304;2023-03-22T08:08:14;13.80;58.50
19214;DHT22;9741;51.020;5.304;2023-03-22T08:10:41;13.90;58.60
19214;DHT22;9741;51.020;5.304;2023-03-22T08:13:10;14.00;58.50
19214;DHT22;9741;51.020;5.304;2023-03-22T08:15:38;14.20;58.50
19214;DHT22;9741;51.020;5.304;2023-03-22T08:18:06;14.30;58.40
19214;DHT22;9741;51.020;5.304;2023-03-22T08:20:33;14.40;58.10
19214;DHT22;9741;51.020;5.304;2023-03-22T08:23:03;14.60;58.00
19214;DHT22;9741;51.020;5.304;2023-03-22T08:25:33;14.70;57.50
19214;DHT22;9741;51.020;5.304;2023-03-22T08:28:02;14.70;57.30
19214;DHT22;9741;51.020;5.304;2023-03-22T08:30:32;14.80;57.60
19214;DHT22;9741;51.020;5.304;2023-03-22T08:33:00;14.90;56.80
19214;DHT22;9741;51.020;5.304;2023-03-22T08:35:28;15.00;56.60
19214;DHT22;9741;51.020;5.304;2023-03-22T08:37:56;15.20;56.50
19214;DHT22;9741;51.020;5.304;2023-03-22T08:40:24;15.60;56.30
19214;DHT22;9741;51.020;5.304;2023-03-22T08:42:52;16.00;56.00
19214;DHT22;9741;51.020;5.304;2023-03-22T08:45:20;16.50;55.60
19214;DHT22;9741;51.020;5.304;2023-03-22T08:47:48;17.00;55.10
19214;DHT22;9741;51.020;5.304;2023-03-22T08:50:18;17.30;54.30
19214;DHT22;9741;51.020;5.304;2023-03-22T08:52:46;17.60;54.00
19214;DHT22;9741;51.020;5.304;2023-03-22T08:55:14;17.70;53.40
19214;DHT22;9741;51.020;5.304;2023-03-22T08:57:42;17.70;52.50
19214;DHT22;9741;51.020;5.304;2023-03-22T09:00:16;17.60;52.40
19214;DHT22;9741;51.020;5.304;2023-03-22T09:02:44;17.50;52.00
19214;DHT22;9741;51.020;5.304;2023-03-22T09:05:16;17.30;51.80
19214;DHT22;9741;51.020;5.304;2023-03-22T09:07:44;17.10;51.70
19214;DHT22;9741;51.020;5.304;2023-03-22T09:10:11;17.00;51.80
19214;DHT22;9741;51.020;5.304;2023-03-22T09:12:39;17.00;51.70
19214;DHT22;9741;51.020;5.304;2023-03-22T09:15:08;16.80;51.40
19214;DHT22;9741;51.020;5.304;2023-03-22T09:17:36;16.80;51.40
19214;DHT22;9741;51.020;5.304;2023-03-22T09:20:05;16.70;51.20
19214;DHT22;9741;51.020;5.304;2023-03-22T09:22:34;16.60;50.90
19214;DHT22;9741;51.020;5.304;2023-03-22T09:25:03;16.50;50.80
19214;DHT22;9741;51.020;5.304;2023-03-22T09:27:31;16.60;51.20
19214;DHT22;9741;51.020;5.304;2023-03-22T09:29:59;16.60;51.20
19214;DHT22;9741;51.020;5.304;2023-03-22T09:32:26;16.80;51.20
19214;DHT22;9741;51.020;5.304;2023-03-22T09:34:53;16.90;51.00
19214;DHT22;9741;51.020;5.304;2023-03-22T09:37:22;17.10;50.90
19214;DHT22;9741;51.020;5.304;2023-03-22T09:39:57;17.30;50.60
19214;DHT22;9741;51.020;5.304;2023-03-22T09:42:31;17.60;50.70
19214;DHT22;9741;51.020;5.304;2023-03-22T09:45:00;17.90;50.60
19214;DHT22;9741;51.020;5.304;2023-03-22T09:47:33;18.10;50.20
19214;DHT22;9741;51.020;5.304;2023-03-22T09:50:06;18.20;49.90
19214;DHT22;9741;51.020;5.304;2023-03-22T09:52:34;18.30;49.70
19214;DHT22;9741;51.020;5.304;2023-03-22T09:55:08;18.40;49.50
19214;DHT22;9741;51.020;5.304;2023-03-22T09:57:41;18.40;48.90
19214;DHT22;9741;51.020;5.304;2023-03-22T10:00:16;18.30;48.80
19214;DHT22;9741;51.020;5.304;2023-03-22T10:02:53;18.20;48.50
19214;DHT22;9741;51.020;5.304;2023-03-22T10:05:30;18.00;48.30
19214;DHT22;9741;51.020;5.304;2023-03-22T10:08:14;17.90;48.50
19214;DHT22;9741;51.020;5.304;2023-03-22T10:10:48;17.80;48.50
19214;DHT22;9741;51.020;5.304;2023-03-22T10:13:24;17.60;48.40
19214;DHT22;9741;51.020;5.304;2023-03-22T10:15:53;17.50;48.40
19214;DHT22;9741;51.020;5.304;2023-03-22T10:18:25;17.30;48.30
19214;DHT22;9741;51.020;5.304;2023-03-22T10:20:59;17.10;48.50
19214;DHT22;9741;51.020;5.304;2023-03-22T10:23:31;16.90;48.50
19214;DHT22;9741;51.020;5.304;2023-03-22T10:26:05;16.70;48.50
19214;DHT22;9741;51.020;5.304;2023-03-22T10:28:38;16.60;48.60
19214;DHT22;9741;51.020;5.304;2023-03-22T10:31:12;16.40;48.70
19214;DHT22;9741;51.020;5.304;2023-03-22T10:33:45;16.40;49.10
19214;DHT22;9741;51.020;5.304;2023-03-22T10:36:21;16.20;49.00
19214;DHT22;9741;51.020;5.304;2023-03-22T10:38:53;16.20;49.20
19214;DHT22;9741;51.020;5.304;2023-03-22T10:41:24;16.10;49.40
19214;DHT22;9741;51.020;5.304;2023-03-22T10:43:54;16.10;49.40
19214;DHT22;9741;51.020;5.304;2023-03-22T10:46:25;15.90;49.40
19214;DHT22;9741;51.020;5.304;2023-03-22T10:48:57;15.90;49.70
19214;DHT22;9741;51.020;5.304;2023-03-22T10:51:28;15.80;49.70
19214;DHT22;9741;51.020;5.304;2023-03-22T10:53:58;15.80;49.80
19214;DHT22;9741;51.020;5.304;2023-03-22T10:56:31;15.70;49.80
19214;DHT22;9741;51.020;5.304;2023-03-22T10:59:01;15.60;49.80
19214;DHT22;9741;51.020;5.304;2023-03-22T11:01:33;15.60;49.80
19214;DHT22;9741;51.020;5.304;2023-03-22T11:04:07;15.50;49.90
19214;DHT22;9741;51.020;5.304;2023-03-22T11:06:39;15.50;50.10
19214;DHT22;9741;51.020;5.304;2023-03-22T11:09:12;15.50;50.40
19214;DHT22;9741;51.020;5.304;2023-03-22T11:11:47;15.50;50.40
19214;DHT22;9741;51.020;5.304;2023-03-22T11:14:21;15.40;50.70
19214;DHT22;9741;51.020;5.304;2023-03-22T11:16:52;15.30;51.00
19214;DHT22;9741;51.020;5.304;2023-03-22T11:19:24;15.30;51.50
19214;DHT22;9741;51.020;5.304;2023-03-22T11:21:53;15.20;51.80
19214;DHT22;9741;51.020;5.304;2023-03-22T11:24:24;15.10;52.00
19214;DHT22;9741;51.020;5.304;2023-03-22T11:27:06;15.10;52.30
19214;DHT22;9741;51.020;5.304;2023-03-22T11:29:44;15.00;52.60
19214;DHT22;9741;51.020;5.304;2023-03-22T11:32:21;14.90;52.90
19214;DHT22;9741;51.020;5.304;2023-03-22T11:34:58;14.90;53.30
19214;DHT22;9741;51.020;5.304;2023-03-22T11:37:26;15.00;53.60
19214;DHT22;9741;51.020;5.304;2023-03-22T11:39:59;15.00;53.70
19214;DHT22;9741;51.020;5.304;2023-03-22T11:42:28;15.00;53.80
19214;DHT22;9741;51.020;5.304;2023-03-22T11:44:56;15.10;54.10
19214;DHT22;9741;51.020;5.304;2023-03-22T11:47:29;15.10;54.20
19214;DHT22;9741;51.020;5.304;2023-03-22T11:50:03;15.30;54.40
19214;DHT22;9741;51.020;5.304;2023-03-22T11:52:32;15.50;54.60
19214;DHT22;9741;51.020;5.304;2023-03-22T11:55:00;15.70;54.50
19214;DHT22;9741;51.020;5.304;2023-03-22T11:57:33;15.80;54.30
19214;DHT22;9741;51.020;5.304;2023-03-22T12:00:03;15.90;54.10
19214;DHT22;9741;51.020;5.304;2023-03-22T12:02:42;15.90;54.00
19214;DHT22;9741;51.020;5.304;2023-03-22T12:05:16;16.00;53.90
19214;DHT22;9741;51.020;5.304;2023-03-22T12:07:47;16.10;53.80
19214;DHT22;9741;51.020;5.304;2023-03-22T12:10:24;16.00;53.60
19214;DHT22;9741;51.020;5.304;2023-03-22T12:12:59;16.00;53.50
19214;DHT22;9741;51.020;5.304;2023-03-22T12:15:33;15.90;53.30
19214;DHT22;9741;51.020;5.304;2023-03-22T12:18:05;15.80;53.20
19214;DHT22;9741;51.020;5.304;2023-03-22T12:20:40;15.70;53.30
19214;DHT22;9741;51.020;5.304;2023-03-22T12:23:13;15.70;53.30
19214;DHT22;9741;51.020;5.304;2023-03-22T12:25:45;15.60;53.30
19214;DHT22;9741;51.020;5.304;2023-03-22T12:28:18;15.60;53.90
19214;DHT22;9741;51.020;5.304;2023-03-22T12:30:48;15.60;53.30
19214;DHT22;9741;51.020;5.304;2023-03-22T12:33:20;15.60;53.30
19214;DHT22;9741;51.020;5.304;2023-03-22T12:35:51;15.70;53.30
19214;DHT22;9741;51.020;5.304;2023-03-22T12:38:28;15.70;53.30
19214;DHT22;9741;51.020;5.304;2023-03-22T12:41:01;15.70;53.10
19214;DHT22;9741;51.020;5.304;2023-03-22T12:43:49;15.70;53.00
19214;DHT22;9741;51.020;5.304;2023-03-22T12:46:20;15.80;53.10
19214;DHT22;9741;51.020;5.304;2023-03-22T12:48:52;15.80;53.10
19214;DHT22;9741;51.020;5.304;2023-03-22T12:51:21;15.90;53.20
19214;DHT22;9741;51.020;5.304;2023-03-22T12:53:53;16.10;53.20
19214;DHT22;9741;51.020;5.304;2023-03-22T12:56:24;16.30;53.20
19214;DHT22;9741;51.020;5.304;2023-03-22T12:58:55;16.40;52.80
19214;DHT22;9741;51.020;5.304;2023-03-22T13:01:30;16.50;52.70
19214;DHT22;9741;51.020;5.304;2023-03-22T13:04:31;16.60;52.70
19214;DHT22;9741;51.020;5.304;2023-03-22T13:07:14;16.60;52.40
19214;DHT22;9741;51.020;5.304;2023-03-22T13:09:44;16.50;52.20
19214;DHT22;9741;51.020;5.304;2023-03-22T13:12:31;16.40;52.10
19214;DHT22;9741;51.020;5.304;2023-03-22T13:17:46;16.10;52.20
19214;DHT22;9741;51.020;5.304;2023-03-22T13:20:31;16.00;52.30
19214;DHT22;9741;51.020;5.304;2023-03-22T13:23:25;15.90;52.40
19214;DHT22;9741;51.020;5.304;2023-03-22T13:26:01;15.90;52.50
19214;DHT22;9741;51.020;5.304;2023-03-22T13:28:30;15.90;52.60
19214;DHT22;9741;51.020;5.304;2023-03-22T13:31:05;15.90;52.60
19214;DHT22;9741;51.020;5.304;2023-03-22T13:33:36;15.80;52.40
19214;DHT22;9741;51.020;5.304;2023-03-22T13:36:07;15.80;52.40
19214;DHT22;9741;51.020;5.304;2023-03-22T13:38:53;15.70;52.40
19214;DHT22;9741;51.020;5.304;2023-03-22T13:41:26;15.70;52.60
19214;DHT22;9741;51.020;5.304;2023-03-22T13:43:55;15.60;52.60
19214;DHT22;9741;51.020;5.304;2023-03-22T13:46:52;15.60;52.60
19214;DHT22;9741;51.020;5.304;2023-03-22T13:49:42;15.60;52.80
19214;DHT22;9741;51.020;5.304;2023-03-22T13:52:26;15.50;52.80
19214;DHT22;9741;51.020;5.304;2023-03-22T13:54:56;15.50;52.90
19214;DHT22;9741;51.020;5.304;2023-03-22T13:57:48;15.50;53.10
19214;DHT22;9741;51.020;5.304;2023-03-22T14:00:31;15.50;53.10
19214;DHT22;9741;51.020;5.304;2023-03-22T14:03:10;15.50;53.10
19214;DHT22;9741;51.020;5.304;2023-03-22T14:05:41;15.50;53.20
19214;DHT22;9741;51.020;5.304;2023-03-22T14:08:19;15.50;53.20
19214;DHT22;9741;51.020;5.304;2023-03-22T14:10:51;15.50;53.20
19214;DHT22;9741;51.020;5.304;2023-03-22T14:13:30;15.50;53.30
19214;DHT22;9741;51.020;5.304;2023-03-22T14:16:04;15.50;53.40
19214;DHT22;9741;51.020;5.304;2023-03-22T14:18:38;15.60;53.50
19214;DHT22;9741;51.020;5.304;2023-03-22T14:21:11;15.60;53.50
19214;DHT22;9741;51.020;5.304;2023-03-22T14:23:43;15.60;53.50
19214;DHT22;9741;51.020;5.304;2023-03-22T14:26:15;15.60;53.40
19214;DHT22;9741;51.020;5.304;2023-03-22T14:28:44;15.60;53.40
19214;DHT22;9741;51.020;5.304;2023-03-22T14:31:27;15.60;53.40
19214;DHT22;9741;51.020;5.304;2023-03-22T14:33:59;15.60;53.50
19214;DHT22;9741;51.020;5.304;2023-03-22T14:36:40;15.60;53.50
19214;DHT22;9741;51.020;5.304;2023-03-22T14:39:15;15.60;53.60
19214;DHT22;9741;51.020;5.304;2023-03-22T14:41:59;15.60;53.60
19214;DHT22;9741;51.020;5.304;2023-03-22T14:44:29;15.60;53.70
19214;DHT22;9741;51.020;5.304;2023-03-22T14:47:01;15.60;53.70
19214;DHT22;9741;51.020;5.304;2023-03-22T14:49:38;15.60;53.70
19214;DHT22;9741;51.020;5.304;2023-03-22T14:52:09;15.60;53.80
19214;DHT22;9741;51.020;5.304;2023-03-22T14:54:38;15.60;53.90
19214;DHT22;9741;51.020;5.304;2023-03-22T14:57:11;15.60;53.90
19214;DHT22;9741;51.020;5.304;2023-03-22T14:59:39;15.60;53.90
19214;DHT22;9741;51.020;5.304;2023-03-22T15:02:20;15.60;53.90
19214;DHT22;9741;51.020;5.304;2023-03-22T15:05:16;15.60;54.00
19214;DHT22;9741;51.020;5.304;2023-03-22T15:07:46;15.60;54.00
19214;DHT22;9741;51.020;5.304;2023-03-22T15:10:17;15.50;54.00
19214;DHT22;9741;51.020;5.304;2023-03-22T15:12:49;15.60;54.10
19214;DHT22;9741;51.020;5.304;2023-03-22T15:15:19;15.60;54.20
19214;DHT22;9741;51.020;5.304;2023-03-22T15:17:47;15.60;54.20
19214;DHT22;9741;51.020;5.304;2023-03-22T15:20:21;15.60;54.20
19214;DHT22;9741;51.020;5.304;2023-03-22T15:22:50;15.60;54.30
19214;DHT22;9741;51.020;5.304;2023-03-22T15:25:18;15.60;54.30
19214;DHT22;9741;51.020;5.304;2023-03-22T15:27:45;15.60;54.90
19214;DHT22;9741;51.020;5.304;2023-03-22T15:30:18;15.60;54.30
19214;DHT22;9741;51.020;5.304;2023-03-22T15:32:46;15.60;54.40
19214;DHT22;9741;51.020;5.304;2023-03-22T15:35:17;15.60;54.40
19214;DHT22;9741;51.020;5.304;2023-03-22T15:37:48;15.70;54.50
19214;DHT22;9741;51.020;5.304;2023-03-22T15:40:33;15.70;54.50
19214;DHT22;9741;51.020;5.304;2023-03-22T15:43:17;15.80;54.50
19214;DHT22;9741;51.020;5.304;2023-03-22T15:46:15;15.70;54.50
19214;DHT22;9741;51.020;5.304;2023-03-22T15:48:46;15.70;55.00
19214;DHT22;9741;51.020;5.304;2023-03-22T15:51:21;15.70;54.50
19214;DHT22;9741;51.020;5.304;2023-03-22T15:54:02;15.70;54.50
19214;DHT22;9741;51.020;5.304;2023-03-22T15:56:31;15.60;54.60
19214;DHT22;9741;51.020;5.304;2023-03-22T15:59:01;15.60;54.70
19214;DHT22;9741;51.020;5.304;2023-03-22T16:01:35;15.50;54.90
19214;DHT22;9741;51.020;5.304;2023-03-22T16:04:15;15.50;54.90
19214;DHT22;9741;51.020;5.304;2023-03-22T16:06:45;15.50;55.00
19214;DHT22;9741;51.020;5.304;2023-03-22T16:09:13;15.50;55.10
19214;DHT22;9741;51.020;5.304;2023-03-22T16:11:41;15.50;55.20
19214;DHT22;9741;51.020;5.304;2023-03-22T16:14:10;15.40;55.10
19214;DHT22;9741;51.020;5.304;2023-03-22T16:16:38;15.40;55.10
19214;DHT22;9741;51.020;5.304;2023-03-22T16:19:05;15.40;55.20
19214;DHT22;9741;51.020;5.304;2023-03-22T16:21:35;15.40;55.20
19214;DHT22;9741;51.020;5.304;2023-03-22T16:24:05;15.30;55.20
19214;DHT22;9741;51.020;5.304;2023-03-22T16:26:35;15.40;55.30
19214;DHT22;9741;51.020;5.304;2023-03-22T16:29:02;15.30;55.30
19214;DHT22;9741;51.020;5.304;2023-03-22T16:31:30;15.20;55.40
19214;DHT22;9741;51.020;5.304;2023-03-22T16:33:58;15.20;55.60
19214;DHT22;9741;51.020;5.304;2023-03-22T16:36:26;15.10;55.70
19214;DHT22;9741;51.020;5.304;2023-03-22T16:38:53;15.00;55.90
19214;DHT22;9741;51.020;5.304;2023-03-22T16:41:25;14.90;56.10
19214;DHT22;9741;51.020;5.304;2023-03-22T16:43:53;14.80;56.50
19214;DHT22;9741;51.020;5.304;2023-03-22T16:46:23;14.60;56.90